TFL5606 EHAM-LEIB
Flight info
| Callsign | TFL5606 |
|---|---|
| Flight time | 2h 16m |
| Altitude | 37000 |
| Route | KUDAD3S WOODY N872 CIV N872 MEDIL DCT KOVIN DCT DUCRA DCT RESMI DCT DEKOD DCT DISAK DCT DIRMO DCT ETAMO DCT ADEKA DCT MOKDI DCT MEN DCT BADAM DCT KANIG DCT KENAS DCT POS POS5N |
| Aircraft | B738/M-SDE3/L |
Departure
| Time | 2026-05-04 07:59 |
|---|---|
| Airport | Amsterdam Airport Schiphol (EHAM) |
Arrival
| Time | 2026-05-04 10:16 |
|---|---|
| Airport | Ibiza Airport (LEIB) |
| Time | Latitude | Longitude | Altitude | Speed | Heading |
|---|---|---|---|---|---|
| 2026-05-04 07:18 | 52.30455 | 4.76718 | -2 ft | 0 kts | 332° |
| 2026-05-04 07:52 | 52.30452 | 4.76720 | -2 ft | 2 kts | 332° |
| 2026-05-04 07:52 | 52.30436 | 4.76733 | -2 ft | 3 kts | 337° |
| 2026-05-04 07:53 | 52.30419 | 4.76745 | -2 ft | 2 kts | 335° |
| 2026-05-04 07:54 | 52.30369 | 4.76717 | -2 ft | 0 kts | 58° |
| 2026-05-04 07:55 | 52.30371 | 4.76721 | -2 ft | 3 kts | 58° |
| 2026-05-04 07:56 | 52.30392 | 4.76777 | -2 ft | 7 kts | 58° |
| 2026-05-04 07:56 | 52.30419 | 4.76847 | -2 ft | 7 kts | 58° |
| 2026-05-04 07:56 | 52.30445 | 4.76914 | -2 ft | 7 kts | 58° |
| 2026-05-04 07:56 | 52.30461 | 4.76986 | -2 ft | 7 kts | 98° |
| 2026-05-04 07:57 | 52.30431 | 4.77048 | -2 ft | 7 kts | 135° |
| 2026-05-04 07:57 | 52.30433 | 4.77141 | -2 ft | 11 kts | 59° |
| 2026-05-04 07:57 | 52.30474 | 4.77246 | -2 ft | 11 kts | 58° |
| 2026-05-04 07:57 | 52.30515 | 4.77355 | -2 ft | 13 kts | 58° |
| 2026-05-04 07:58 | 52.30562 | 4.77486 | -2 ft | 14 kts | 75° |
| 2026-05-04 07:58 | 52.30510 | 4.77592 | -2 ft | 13 kts | 151° |
| 2026-05-04 07:58 | 52.30428 | 4.77638 | -2 ft | 13 kts | 199° |
| 2026-05-04 07:58 | 52.30360 | 4.77499 | -3 ft | 34 kts | 239° |
| 2026-05-04 07:59 | 52.30099 | 4.76817 | -2 ft | 105 kts | 238° |
| 2026-05-04 07:59 | 52.29594 | 4.75511 | 0 ft | 164 kts | 237° |
| 2026-05-04 07:59 | 52.28949 | 4.73813 | 501 ft | 176 kts | 237° |
| 2026-05-04 07:59 | 52.28307 | 4.72133 | 1400 ft | 175 kts | 237° |
| 2026-05-04 08:00 | 52.27642 | 4.70426 | 2039 ft | 188 kts | 238° |
| 2026-05-04 08:00 | 52.26755 | 4.68724 | 2463 ft | 206 kts | 213° |
| 2026-05-04 08:00 | 52.25336 | 4.68126 | 2764 ft | 224 kts | 171° |
| 2026-05-04 08:02 | 52.14739 | 4.75849 | 6976 ft | 272 kts | 169° |
| 2026-05-04 08:02 | 52.12869 | 4.76500 | 7633 ft | 277 kts | 169° |
| 2026-05-04 08:02 | 52.10979 | 4.77167 | 8436 ft | 279 kts | 169° |
| 2026-05-04 08:03 | 52.09078 | 4.77860 | 9245 ft | 281 kts | 169° |
| 2026-05-04 08:03 | 52.07166 | 4.78577 | 9996 ft | 283 kts | 169° |
| 2026-05-04 08:03 | 52.05206 | 4.79325 | 10427 ft | 298 kts | 169° |
| 2026-05-04 08:03 | 52.03115 | 4.80126 | 10599 ft | 320 kts | 169° |
| 2026-05-04 08:04 | 52.00864 | 4.80987 | 10764 ft | 341 kts | 170° |
| 2026-05-04 08:04 | 51.98475 | 4.81132 | 11114 ft | 349 kts | 193° |
| 2026-05-04 08:04 | 51.96181 | 4.79860 | 11771 ft | 350 kts | 206° |
| 2026-05-04 08:04 | 51.93996 | 4.78104 | 12471 ft | 352 kts | 208° |
| 2026-05-04 08:05 | 51.91803 | 4.76315 | 13156 ft | 355 kts | 207° |
| 2026-05-04 08:05 | 51.89573 | 4.74528 | 13818 ft | 359 kts | 207° |
| 2026-05-04 08:05 | 51.87317 | 4.72748 | 14416 ft | 362 kts | 207° |
| 2026-05-04 08:05 | 51.85040 | 4.70966 | 15012 ft | 364 kts | 207° |
| 2026-05-04 08:06 | 51.82754 | 4.69182 | 15619 ft | 367 kts | 207° |
| 2026-05-04 08:06 | 51.80469 | 4.67402 | 16200 ft | 370 kts | 207° |
| 2026-05-04 08:06 | 51.78141 | 4.65591 | 16776 ft | 373 kts | 207° |
| 2026-05-04 08:06 | 51.75790 | 4.63763 | 17364 ft | 376 kts | 207° |
| 2026-05-04 08:08 | 51.59774 | 4.51356 | 21043 ft | 385 kts | 207° |
| 2026-05-04 08:08 | 51.57353 | 4.49486 | 21563 ft | 386 kts | 207° |
| 2026-05-04 08:10 | 51.37683 | 4.34404 | 25027 ft | 398 kts | 206° |
| 2026-05-04 08:11 | 51.35160 | 4.32525 | 25375 ft | 400 kts | 206° |
| 2026-05-04 08:11 | 51.30252 | 4.28865 | 26059 ft | 403 kts | 206° |
| 2026-05-04 08:11 | 51.27721 | 4.26942 | 26392 ft | 404 kts | 207° |
| 2026-05-04 08:12 | 51.25180 | 4.25000 | 26703 ft | 406 kts | 207° |
| 2026-05-04 08:12 | 51.22625 | 4.23049 | 27002 ft | 408 kts | 207° |
| 2026-05-04 08:12 | 51.20058 | 4.21098 | 27331 ft | 409 kts | 207° |
| 2026-05-04 08:12 | 51.17517 | 4.19171 | 27656 ft | 410 kts | 206° |
| 2026-05-04 08:13 | 51.14853 | 4.17357 | 27960 ft | 412 kts | 202° |
| 2026-05-04 08:13 | 51.12136 | 4.15857 | 28248 ft | 414 kts | 200° |
| 2026-05-04 08:13 | 51.09411 | 4.14416 | 28518 ft | 416 kts | 200° |
| 2026-05-04 08:13 | 51.06699 | 4.12984 | 28836 ft | 416 kts | 200° |
| 2026-05-04 08:14 | 51.03928 | 4.11504 | 29278 ft | 414 kts | 201° |
| 2026-05-04 08:14 | 51.01212 | 4.10039 | 29768 ft | 410 kts | 201° |
| 2026-05-04 08:14 | 50.98517 | 4.08576 | 30196 ft | 408 kts | 201° |
| 2026-05-04 08:16 | 50.80014 | 3.97805 | 32221 ft | 402 kts | 205° |
| 2026-05-04 08:16 | 50.77473 | 3.96144 | 32625 ft | 398 kts | 205° |
| 2026-05-04 08:16 | 50.74921 | 3.94488 | 32914 ft | 398 kts | 205° |
| 2026-05-04 08:17 | 50.72351 | 3.92833 | 33120 ft | 399 kts | 205° |
| 2026-05-04 08:17 | 50.69772 | 3.91180 | 33342 ft | 399 kts | 205° |
| 2026-05-04 08:17 | 50.67236 | 3.89561 | 33644 ft | 398 kts | 205° |
| 2026-05-04 08:17 | 50.64671 | 3.87927 | 33934 ft | 396 kts | 205° |
| 2026-05-04 08:19 | 50.46789 | 3.76069 | 35075 ft | 400 kts | 205° |
| 2026-05-04 08:19 | 50.44259 | 3.74337 | 35220 ft | 401 kts | 205° |
| 2026-05-04 08:20 | 50.41693 | 3.72588 | 35345 ft | 402 kts | 205° |
| 2026-05-04 08:20 | 50.39117 | 3.70836 | 35476 ft | 403 kts | 205° |
| 2026-05-04 08:20 | 50.36544 | 3.69090 | 35651 ft | 404 kts | 205° |
| 2026-05-04 08:20 | 50.33960 | 3.67338 | 35738 ft | 405 kts | 205° |
| 2026-05-04 08:21 | 50.31367 | 3.65584 | 35876 ft | 406 kts | 204° |
| 2026-05-04 08:21 | 50.28774 | 3.63832 | 36014 ft | 406 kts | 204° |
| 2026-05-04 08:21 | 50.26187 | 3.62086 | 36141 ft | 407 kts | 204° |
| 2026-05-04 08:21 | 50.23581 | 3.60328 | 36262 ft | 408 kts | 204° |
| 2026-05-04 08:22 | 50.20970 | 3.58569 | 36393 ft | 409 kts | 204° |
| 2026-05-04 08:22 | 50.18351 | 3.56806 | 36504 ft | 410 kts | 204° |
| 2026-05-04 08:24 | 49.99780 | 3.45048 | 36985 ft | 415 kts | 192° |
| 2026-05-04 08:24 | 49.96993 | 3.44578 | 36979 ft | 416 kts | 184° |
| 2026-05-04 08:24 | 49.91166 | 3.44248 | 36976 ft | 415 kts | 185° |
| 2026-05-04 08:25 | 49.85440 | 3.43881 | 36984 ft | 415 kts | 185° |
| 2026-05-04 08:25 | 49.79631 | 3.43479 | 37000 ft | 414 kts | 185° |
| 2026-05-04 08:27 | 49.56626 | 3.41847 | 36984 ft | 413 kts | 185° |
| 2026-05-04 08:28 | 49.50881 | 3.41441 | 36986 ft | 413 kts | 185° |
| 2026-05-04 08:28 | 49.45128 | 3.41037 | 36983 ft | 414 kts | 185° |
| 2026-05-04 08:29 | 49.39371 | 3.40633 | 36985 ft | 414 kts | 185° |
| 2026-05-04 08:31 | 49.16360 | 3.39026 | 36997 ft | 416 kts | 185° |
| 2026-05-04 08:33 | 48.93111 | 3.37421 | 36984 ft | 414 kts | 185° |
| 2026-05-04 08:35 | 48.70339 | 3.35861 | 36992 ft | 407 kts | 185° |
| 2026-05-04 08:35 | 48.64675 | 3.35475 | 36985 ft | 407 kts | 185° |
| 2026-05-04 08:37 | 48.44844 | 3.34130 | 36990 ft | 411 kts | 185° |
| 2026-05-04 08:38 | 48.39100 | 3.33743 | 36982 ft | 412 kts | 185° |
| 2026-05-04 08:38 | 48.33369 | 3.33358 | 36992 ft | 412 kts | 185° |
| 2026-05-04 08:40 | 48.10532 | 3.31831 | 36992 ft | 411 kts | 185° |
| 2026-05-04 08:41 | 48.04822 | 3.31451 | 36986 ft | 410 kts | 185° |
| 2026-05-04 08:41 | 47.99127 | 3.31074 | 36996 ft | 411 kts | 185° |
| 2026-05-04 08:42 | 47.93415 | 3.30696 | 36981 ft | 408 kts | 185° |
| 2026-05-04 08:42 | 47.87762 | 3.30322 | 36984 ft | 406 kts | 185° |
| 2026-05-04 08:43 | 47.82165 | 3.29953 | 36997 ft | 404 kts | 185° |
| 2026-05-04 08:43 | 47.76580 | 3.29585 | 36989 ft | 404 kts | 185° |
| 2026-05-04 08:44 | 47.70929 | 3.29213 | 36984 ft | 404 kts | 185° |
| 2026-05-04 08:46 | 47.48464 | 3.27746 | 37000 ft | 408 kts | 185° |
| 2026-05-04 08:46 | 47.42718 | 3.27372 | 36986 ft | 410 kts | 185° |
| 2026-05-04 08:47 | 47.36979 | 3.27001 | 37001 ft | 411 kts | 185° |
| 2026-05-04 08:47 | 47.31252 | 3.26630 | 37009 ft | 412 kts | 185° |
| 2026-05-04 08:48 | 47.25576 | 3.26263 | 37007 ft | 417 kts | 185° |
| 2026-05-04 08:48 | 47.19801 | 3.25892 | 36978 ft | 413 kts | 185° |
| 2026-05-04 08:49 | 47.14013 | 3.25524 | 36991 ft | 406 kts | 185° |
| 2026-05-04 08:50 | 46.94357 | 3.24264 | 36999 ft | 405 kts | 185° |
| 2026-05-04 08:51 | 46.88720 | 3.23905 | 36991 ft | 406 kts | 185° |
| 2026-05-04 08:51 | 46.83075 | 3.23546 | 36999 ft | 407 kts | 185° |
| 2026-05-04 08:52 | 46.77436 | 3.23188 | 36995 ft | 408 kts | 185° |
| 2026-05-04 08:52 | 46.71740 | 3.22830 | 36999 ft | 409 kts | 185° |
| 2026-05-04 08:54 | 46.49808 | 3.21470 | 36986 ft | 413 kts | 185° |
| 2026-05-04 08:55 | 46.44078 | 3.21116 | 36996 ft | 412 kts | 185° |
| 2026-05-04 08:55 | 46.38394 | 3.20766 | 36988 ft | 411 kts | 185° |
| 2026-05-04 09:01 | 45.78966 | 3.17145 | 36996 ft | 410 kts | 185° |
| 2026-05-04 09:01 | 45.73264 | 3.16802 | 36996 ft | 411 kts | 185° |
| 2026-05-04 09:02 | 45.67625 | 3.16464 | 36987 ft | 411 kts | 185° |
| 2026-05-04 09:02 | 45.61936 | 3.16123 | 36993 ft | 411 kts | 185° |
| 2026-05-04 09:03 | 45.56148 | 3.15776 | 36989 ft | 411 kts | 185° |
| 2026-05-04 09:03 | 45.50515 | 3.15440 | 36989 ft | 411 kts | 185° |
| 2026-05-04 09:04 | 45.44705 | 3.15094 | 36989 ft | 411 kts | 185° |
| 2026-05-04 09:04 | 45.38977 | 3.14755 | 36992 ft | 411 kts | 185° |
| 2026-05-04 09:05 | 45.33269 | 3.14415 | 36985 ft | 410 kts | 186° |
| 2026-05-04 09:05 | 45.27575 | 3.14078 | 36997 ft | 410 kts | 186° |
| 2026-05-04 09:06 | 45.21919 | 3.13743 | 36997 ft | 409 kts | 186° |
| 2026-05-04 09:08 | 44.99271 | 3.12412 | 37001 ft | 406 kts | 186° |
| 2026-05-04 09:08 | 44.93635 | 3.12082 | 36999 ft | 405 kts | 186° |
| 2026-05-04 09:09 | 44.88023 | 3.11754 | 37005 ft | 405 kts | 186° |
| 2026-05-04 09:09 | 44.82371 | 3.11422 | 37005 ft | 409 kts | 186° |
| 2026-05-04 09:10 | 44.76683 | 3.11091 | 37007 ft | 409 kts | 186° |
| 2026-05-04 09:10 | 44.70989 | 3.10762 | 37016 ft | 410 kts | 186° |
| 2026-05-04 09:11 | 44.65292 | 3.10432 | 37022 ft | 410 kts | 186° |
| 2026-05-04 09:11 | 44.59606 | 3.10102 | 37029 ft | 413 kts | 186° |
| 2026-05-04 09:12 | 44.53863 | 3.09770 | 37012 ft | 416 kts | 186° |
| 2026-05-04 09:14 | 44.31004 | 3.08462 | 37015 ft | 404 kts | 186° |
| 2026-05-04 09:14 | 44.25394 | 3.08141 | 37022 ft | 401 kts | 186° |
| 2026-05-04 09:15 | 44.19816 | 3.07821 | 37028 ft | 401 kts | 186° |
| 2026-05-04 09:15 | 44.14243 | 3.07503 | 37024 ft | 401 kts | 187° |
| 2026-05-04 09:17 | 43.88916 | 3.06066 | 37019 ft | 411 kts | 187° |
| 2026-05-04 09:18 | 43.83104 | 3.05738 | 37017 ft | 413 kts | 187° |
| 2026-05-04 09:18 | 43.77344 | 3.05415 | 36989 ft | 414 kts | 187° |
| 2026-05-04 09:19 | 43.71629 | 3.05095 | 37006 ft | 413 kts | 187° |
| 2026-05-04 09:19 | 43.65913 | 3.04776 | 36997 ft | 411 kts | 187° |
| 2026-05-04 09:20 | 43.60191 | 3.04459 | 37000 ft | 409 kts | 187° |
| 2026-05-04 09:20 | 43.54528 | 3.04142 | 36977 ft | 405 kts | 188° |
| 2026-05-04 09:21 | 43.48944 | 3.03830 | 37002 ft | 403 kts | 188° |
| 2026-05-04 09:21 | 43.43353 | 3.03519 | 36997 ft | 401 kts | 188° |
| 2026-05-04 09:22 | 43.37783 | 3.03209 | 36976 ft | 400 kts | 188° |
| 2026-05-04 09:22 | 43.32225 | 3.02901 | 36995 ft | 400 kts | 188° |
| 2026-05-04 09:23 | 43.26654 | 3.02591 | 36985 ft | 401 kts | 188° |
| 2026-05-04 09:23 | 43.21113 | 3.02285 | 36985 ft | 402 kts | 188° |
| 2026-05-04 09:25 | 42.98557 | 3.01044 | 36967 ft | 409 kts | 188° |
| 2026-05-04 09:26 | 42.92854 | 3.00733 | 36951 ft | 410 kts | 188° |
| 2026-05-04 09:26 | 42.87190 | 3.00424 | 36964 ft | 410 kts | 188° |
| 2026-05-04 09:27 | 42.81481 | 3.00114 | 36963 ft | 410 kts | 188° |
| 2026-05-04 09:27 | 42.75779 | 2.99804 | 36966 ft | 410 kts | 188° |
| 2026-05-04 09:28 | 42.70092 | 2.99495 | 36966 ft | 409 kts | 188° |
| 2026-05-04 09:28 | 42.64403 | 2.99187 | 36962 ft | 408 kts | 188° |
| 2026-05-04 09:29 | 42.58734 | 2.98880 | 36962 ft | 407 kts | 188° |
| 2026-05-04 09:29 | 42.53087 | 2.98575 | 36953 ft | 405 kts | 188° |
| 2026-05-04 09:30 | 42.47458 | 2.98302 | 36956 ft | 405 kts | 186° |
| 2026-05-04 09:30 | 42.41818 | 2.98669 | 36948 ft | 409 kts | 183° |
| 2026-05-04 09:31 | 42.36133 | 2.99208 | 36917 ft | 409 kts | 183° |
| 2026-05-04 09:31 | 42.30456 | 2.99721 | 36938 ft | 408 kts | 184° |
| 2026-05-04 09:32 | 42.24783 | 3.00202 | 36944 ft | 408 kts | 184° |
| 2026-05-04 09:34 | 42.02223 | 3.02039 | 36948 ft | 409 kts | 184° |
| 2026-05-04 09:34 | 41.96532 | 3.02500 | 36945 ft | 409 kts | 184° |
| 2026-05-04 09:35 | 41.90845 | 3.02960 | 36948 ft | 409 kts | 184° |
| 2026-05-04 09:35 | 41.85149 | 3.03421 | 36952 ft | 409 kts | 184° |
| 2026-05-04 09:37 | 41.62480 | 3.05242 | 36962 ft | 409 kts | 184° |
| 2026-05-04 09:38 | 41.56789 | 3.05699 | 36963 ft | 408 kts | 184° |
| 2026-05-04 09:38 | 41.51043 | 3.06157 | 36946 ft | 408 kts | 185° |
| 2026-05-04 09:39 | 41.45415 | 3.06606 | 36967 ft | 408 kts | 185° |
| 2026-05-04 09:39 | 41.39753 | 3.07057 | 36978 ft | 408 kts | 185° |
| 2026-05-04 09:40 | 41.34086 | 3.07507 | 36980 ft | 408 kts | 185° |
| 2026-05-04 09:40 | 41.28402 | 3.07958 | 36970 ft | 408 kts | 185° |
| 2026-05-04 09:42 | 41.06692 | 3.09673 | 36973 ft | 408 kts | 185° |
| 2026-05-04 09:43 | 41.01015 | 3.10120 | 36986 ft | 409 kts | 185° |
| 2026-05-04 09:43 | 40.95327 | 3.10566 | 36989 ft | 409 kts | 185° |
| 2026-05-04 09:44 | 40.89638 | 3.11012 | 36992 ft | 409 kts | 185° |
| 2026-05-04 09:46 | 40.66882 | 3.12789 | 36998 ft | 411 kts | 185° |
| 2026-05-04 09:46 | 40.61167 | 3.13233 | 36993 ft | 411 kts | 185° |
| 2026-05-04 09:47 | 40.55454 | 3.13677 | 36995 ft | 411 kts | 185° |
| 2026-05-04 09:49 | 40.32843 | 3.13326 | 36996 ft | 405 kts | 190° |
| 2026-05-04 09:51 | 40.13131 | 3.12422 | 36990 ft | 405 kts | 190° |
| 2026-05-04 09:51 | 40.10303 | 3.12293 | 36788 ft | 409 kts | 190° |
| 2026-05-04 09:51 | 40.07464 | 3.12165 | 36531 ft | 406 kts | 190° |
| 2026-05-04 09:51 | 40.04629 | 3.12037 | 36117 ft | 409 kts | 190° |
| 2026-05-04 09:52 | 40.01780 | 3.11908 | 35755 ft | 409 kts | 190° |
| 2026-05-04 09:52 | 39.98937 | 3.11781 | 35332 ft | 407 kts | 190° |
| 2026-05-04 09:52 | 39.96134 | 3.11655 | 34931 ft | 410 kts | 190° |
| 2026-05-04 09:52 | 39.93306 | 3.11332 | 34518 ft | 404 kts | 200° |
| 2026-05-04 09:53 | 39.90688 | 3.10148 | 34307 ft | 396 kts | 212° |
| 2026-05-04 09:53 | 39.88233 | 3.08449 | 33891 ft | 402 kts | 214° |
| 2026-05-04 09:53 | 39.85807 | 3.06645 | 33427 ft | 400 kts | 215° |
| 2026-05-04 09:53 | 39.83417 | 3.04844 | 33046 ft | 394 kts | 214° |
| 2026-05-04 09:54 | 39.81054 | 3.03074 | 32599 ft | 390 kts | 214° |
| 2026-05-04 09:54 | 39.78710 | 3.01335 | 32201 ft | 385 kts | 213° |
| 2026-05-04 09:54 | 39.76390 | 2.99629 | 31758 ft | 381 kts | 213° |
| 2026-05-04 09:54 | 39.74088 | 2.97948 | 31360 ft | 376 kts | 213° |
| 2026-05-04 09:55 | 39.71816 | 2.96293 | 30826 ft | 374 kts | 213° |
| 2026-05-04 09:55 | 39.69539 | 2.94637 | 30285 ft | 373 kts | 212° |
| 2026-05-04 09:55 | 39.67277 | 2.92996 | 29745 ft | 370 kts | 212° |
| 2026-05-04 09:55 | 39.65050 | 2.91383 | 28973 ft | 363 kts | 212° |
| 2026-05-04 09:56 | 39.62821 | 2.89767 | 27500 ft | 373 kts | 213° |
| 2026-05-04 09:56 | 39.60553 | 2.88121 | 26147 ft | 382 kts | 213° |
| 2026-05-04 09:56 | 39.58231 | 2.86441 | 25124 ft | 382 kts | 213° |
| 2026-05-04 09:56 | 39.55919 | 2.84772 | 24288 ft | 377 kts | 213° |
| 2026-05-04 09:57 | 39.53636 | 2.83126 | 23490 ft | 373 kts | 213° |
| 2026-05-04 09:57 | 39.51384 | 2.81501 | 22592 ft | 368 kts | 213° |
| 2026-05-04 09:57 | 39.49155 | 2.79893 | 21655 ft | 367 kts | 213° |
| 2026-05-04 09:57 | 39.46925 | 2.78285 | 21198 ft | 363 kts | 214° |
| 2026-05-04 09:58 | 39.44863 | 2.76458 | 20738 ft | 356 kts | 223° |
| 2026-05-04 09:58 | 39.43067 | 2.74299 | 20294 ft | 351 kts | 229° |
| 2026-05-04 09:58 | 39.41494 | 2.71885 | 19665 ft | 351 kts | 237° |
| 2026-05-04 10:00 | 39.32322 | 2.53647 | 16429 ft | 342 kts | 238° |
| 2026-05-04 10:00 | 39.31016 | 2.51061 | 16064 ft | 345 kts | 238° |
| 2026-05-04 10:02 | 39.21827 | 2.32957 | 13358 ft | 344 kts | 237° |
| 2026-05-04 10:04 | 39.15270 | 2.14127 | 11030 ft | 296 kts | 248° |
| 2026-05-04 10:04 | 39.14564 | 2.11723 | 10908 ft | 278 kts | 248° |
| 2026-05-04 10:04 | 39.13894 | 2.09452 | 10727 ft | 266 kts | 248° |
| 2026-05-04 10:04 | 39.13243 | 2.07256 | 10399 ft | 259 kts | 248° |
| 2026-05-04 10:05 | 39.12601 | 2.05095 | 9983 ft | 258 kts | 248° |
| 2026-05-04 10:05 | 39.11960 | 2.02943 | 9509 ft | 257 kts | 248° |
| 2026-05-04 10:05 | 39.11321 | 2.00796 | 9063 ft | 256 kts | 248° |
| 2026-05-04 10:05 | 39.10684 | 1.98660 | 8663 ft | 254 kts | 248° |
| 2026-05-04 10:06 | 39.10051 | 1.96540 | 8273 ft | 253 kts | 248° |
| 2026-05-04 10:06 | 39.09434 | 1.94474 | 7959 ft | 248 kts | 248° |
| 2026-05-04 10:06 | 39.08819 | 1.92413 | 7671 ft | 245 kts | 248° |
| 2026-05-04 10:08 | 39.05034 | 1.80271 | 6095 ft | 239 kts | 242° |
| 2026-05-04 10:08 | 39.04273 | 1.78398 | 5932 ft | 234 kts | 241° |
| 2026-05-04 10:08 | 39.03533 | 1.76572 | 5819 ft | 226 kts | 242° |
| 2026-05-04 10:08 | 39.02810 | 1.74778 | 5589 ft | 224 kts | 241° |
| 2026-05-04 10:09 | 39.02079 | 1.73015 | 5341 ft | 223 kts | 240° |
| 2026-05-04 10:09 | 39.01346 | 1.71265 | 5103 ft | 221 kts | 241° |
| 2026-05-04 10:09 | 39.00627 | 1.69547 | 4870 ft | 220 kts | 240° |
| 2026-05-04 10:09 | 38.99903 | 1.67815 | 4606 ft | 219 kts | 241° |
| 2026-05-04 10:10 | 38.99178 | 1.66075 | 4357 ft | 217 kts | 241° |
| 2026-05-04 10:10 | 38.98475 | 1.64390 | 4126 ft | 216 kts | 240° |
| 2026-05-04 10:10 | 38.97766 | 1.62691 | 3882 ft | 215 kts | 241° |
| 2026-05-04 10:10 | 38.97061 | 1.61000 | 3658 ft | 211 kts | 241° |
| 2026-05-04 10:11 | 38.96376 | 1.59357 | 3402 ft | 206 kts | 241° |
| 2026-05-04 10:11 | 38.95712 | 1.57744 | 3149 ft | 201 kts | 240° |
| 2026-05-04 10:11 | 38.95073 | 1.56189 | 2911 ft | 196 kts | 241° |
| 2026-05-04 10:11 | 38.94445 | 1.54661 | 2704 ft | 190 kts | 241° |
| 2026-05-04 10:12 | 38.93838 | 1.53187 | 2500 ft | 183 kts | 240° |
| 2026-05-04 10:12 | 38.93256 | 1.51776 | 2298 ft | 175 kts | 240° |
| 2026-05-04 10:12 | 38.92695 | 1.50421 | 2075 ft | 168 kts | 240° |
| 2026-05-04 10:12 | 38.92157 | 1.49119 | 1853 ft | 164 kts | 240° |
| 2026-05-04 10:13 | 38.91637 | 1.47862 | 1676 ft | 151 kts | 240° |
| 2026-05-04 10:13 | 38.91160 | 1.46711 | 1449 ft | 144 kts | 241° |
| 2026-05-04 10:13 | 38.90693 | 1.45580 | 1247 ft | 144 kts | 240° |
| 2026-05-04 10:13 | 38.90210 | 1.44403 | 994 ft | 152 kts | 242° |
| 2026-05-04 10:14 | 38.89714 | 1.43200 | 831 ft | 155 kts | 239° |
| 2026-05-04 10:14 | 38.89204 | 1.41970 | 626 ft | 156 kts | 240° |
| 2026-05-04 10:16 | 38.86939 | 1.36245 | 6 ft | 19 kts | 332° |
| 2026-05-04 10:16 | 38.86964 | 1.36228 | 6 ft | 0 kts | 332° |
| 2026-05-04 10:17 | 38.86970 | 1.36224 | 8 ft | 4 kts | 332° |
| 2026-05-04 10:17 | 38.86995 | 1.36209 | 7 ft | 4 kts | 351° |
| 2026-05-04 10:19 | 38.87109 | 1.36436 | 7 ft | 4 kts | 62° |
| 2026-05-04 10:19 | 38.87123 | 1.36470 | 7 ft | 4 kts | 60° |
| 2026-05-04 10:19 | 38.87137 | 1.36503 | 7 ft | 4 kts | 61° |
| 2026-05-04 10:19 | 38.87153 | 1.36538 | 7 ft | 5 kts | 61° |
| 2026-05-04 10:20 | 38.87168 | 1.36575 | 7 ft | 5 kts | 62° |
| 2026-05-04 10:20 | 38.87183 | 1.36612 | 7 ft | 5 kts | 63° |
| 2026-05-04 10:20 | 38.87199 | 1.36651 | 7 ft | 6 kts | 63° |
| 2026-05-04 10:20 | 38.87218 | 1.36699 | 9 ft | 6 kts | 63° |
| 2026-05-04 10:21 | 38.87237 | 1.36746 | 8 ft | 6 kts | 63° |
| 2026-05-04 10:21 | 38.87255 | 1.36793 | 8 ft | 6 kts | 63° |
| 2026-05-04 10:21 | 38.87274 | 1.36839 | 8 ft | 6 kts | 63° |
| 2026-05-04 10:21 | 38.87292 | 1.36885 | 8 ft | 6 kts | 63° |
| 2026-05-04 10:22 | 38.87329 | 1.36973 | 8 ft | 6 kts | 60° |
| 2026-05-04 10:22 | 38.87354 | 1.37032 | 8 ft | 8 kts | 62° |
| 2026-05-04 10:22 | 38.87380 | 1.37096 | 9 ft | 8 kts | 62° |
| 2026-05-04 10:23 | 38.87406 | 1.37158 | 8 ft | 8 kts | 62° |
| 2026-05-04 10:23 | 38.87430 | 1.37217 | 8 ft | 7 kts | 62° |
| 2026-05-04 10:25 | 38.87608 | 1.37540 | 8 ft | 7 kts | 333° |
| 2026-05-04 10:25 | 38.87649 | 1.37513 | 8 ft | 7 kts | 332° |
| 2026-05-04 10:25 | 38.87689 | 1.37486 | 7 ft | 6 kts | 332° |
| 2026-05-04 10:25 | 38.87721 | 1.37459 | 7 ft | 4 kts | 300° |
| 2026-05-04 10:26 | 38.87709 | 1.37430 | 7 ft | 4 kts | 229° |
| 2026-05-04 10:26 | 38.87691 | 1.37403 | 7 ft | 5 kts | 229° |
| 2026-05-04 10:26 | 38.87672 | 1.37367 | 7 ft | 5 kts | 242° |
| 2026-05-04 10:26 | 38.87646 | 1.37304 | 8 ft | 9 kts | 242° |
| 2026-05-04 10:27 | 38.87617 | 1.37234 | 7 ft | 9 kts | 242° |
| 2026-05-04 10:27 | 38.87588 | 1.37165 | 7 ft | 9 kts | 241° |
| 2026-05-04 10:27 | 38.87570 | 1.37121 | 7 ft | 8 kts | 245° |
| 2026-05-04 10:27 | 38.87576 | 1.37089 | 7 ft | 2 kts | 330° |
| 2026-05-04 10:28 | 38.87590 | 1.37079 | 7 ft | 2 kts | 332° |
| 2026-05-04 10:28 | 38.87604 | 1.37070 | 9 ft | 2 kts | 332° |
| 2026-05-04 10:28 | 38.87618 | 1.37061 | 7 ft | 2 kts | 332° |
| 2026-05-04 10:28 | 38.87620 | 1.37059 | 7 ft | 0 kts | 332° |